| time (UTC) | temp F | wind direction | speed MPH | gust MPH | rain 1hr in | rain 24hr in | rain mn in | humidity % | barometer mb |
| 20260508082821 | 37 | 217 | 0.0 | 0.0 | 0.00 | 0.00 | 0.00 | 86 | 1017.1 |
| 20260508082330 | 37 | 217 | 0.0 | 0.0 | 0.00 | 0.00 | 0.00 | 86 | 1017.0 |
| 20260508081812 | 37 | 223 | 0.0 | 0.0 | 0.00 | 0.00 | 0.00 | 85 | 1016.9 |
| 20260508081616 | 36 | 217 | 0.0 | 0.0 | 0.00 | 0.00 | 0.00 | 86 | 1016.9 |
| 20260508081538 | 36 | 0 | 0.0 | 0.0 | 0.00 | 0.00 | 0.00 | 85 | 1014.7 |
| 20260508081321 | 37 | 240 | 0.0 | 0.0 | 0.00 | 0.00 | 0.00 | 86 | 1017.0 |
| 20260508080811 | 37 | 240 | 0.0 | 0.0 | 0.00 | 0.00 | 0.00 | 86 | 1017.0 |
| 20260508080320 | 37 | 251 | 0.0 | 0.0 | 0.00 | 0.00 | 0.00 | 86 | 1017.0 |
| 20260508080039 | 37 | 251 | 0.0 | 0.0 | 0.00 | 0.00 | 0.00 | 85 | 1017.1 |
| 20260508080037 | 37 | 0 | 0.0 | 0.0 | 0.00 | 0.00 | 0.00 | 85 | 1014.9 |
| 20260508075821 | 37 | 251 | 0.0 | 0.0 | 0.00 | 0.00 | 0.00 | 85 | 1017.0 |
| 20260508075313 | 37 | 251 | 0.0 | 0.0 | 0.00 | 0.00 | 0.00 | 85 | 1017.1 |
| 20260508074838 | 37 | 251 | 0.0 | 0.0 | 0.00 | 0.00 | 0.00 | 85 | 1017.1 |
| 20260508074553 | 37 | 251 | 0.0 | 0.0 | 0.00 | 0.00 | 0.00 | 85 | 1017.1 |
| 20260508074542 | 37 | 0 | 0.0 | 0.0 | 0.00 | 0.00 | 0.00 | 85 | 1014.8 |
| 20260508074309 | 37 | 251 | 0.0 | 0.0 | 0.00 | 0.00 | 0.00 | 85 | 1017.0 |
| 20260508073833 | 37 | 251 | 0.0 | 0.0 | 0.00 | 0.00 | 0.00 | 85 | 1017.1 |
| 20260508073321 | 37 | 251 | 0.0 | 0.0 | 0.00 | 0.00 | 0.00 | 85 | 1017.1 |
| 20260508073037 | 37 | 0 | 0.0 | 0.0 | 0.00 | 0.00 | 0.00 | 85 | 1014.8 |
| 20260508073008 | 37 | 251 | 0.0 | 0.0 | 0.00 | 0.00 | 0.00 | 85 | 1017.0 |
| 20260508072813 | 38 | 251 | 0.0 | 0.0 | 0.00 | 0.00 | 0.00 | 85 | 1017.0 |
| 20260508072323 | 38 | 251 | 0.0 | 0.0 | 0.00 | 0.00 | 0.00 | 85 | 1017.1 |
| 20260508071833 | 38 | 251 | 0.0 | 1.0 | 0.00 | 0.00 | 0.00 | 85 | 1017.0 |
| 20260508071548 | 37 | 251 | 0.0 | 1.0 | 0.00 | 0.00 | 0.00 | 85 | 1017.0 |
| 20260508071312 | 38 | 251 | 0.0 | 2.0 | 0.00 | 0.00 | 0.00 | 85 | 1017.0 |
| 20260508070842 | 38 | 251 | 1.0 | 2.0 | 0.00 | 0.00 | 0.00 | 85 | 1017.0 |
| 20260508070310 | 38 | 251 | 0.0 | 0.0 | 0.00 | 0.00 | 0.00 | 85 | 1017.2 |
| 20260508070036 | 37 | 0 | 0.0 | 0.0 | 0.00 | 0.00 | 0.00 | 84 | 1014.9 |
| 20260508070005 | 37 | 251 | 0.0 | 0.0 | 0.00 | 0.00 | 0.00 | 85 | 1017.2 |
| 20260508065819 | 38 | 251 | 0.0 | 0.0 | 0.00 | 0.00 | 0.00 | 85 | 1017.2 |
| 20260508065330 | 38 | 251 | 0.0 | 2.0 | 0.00 | 0.00 | 0.00 | 85 | 1017.1 |
| 20260508064839 | 38 | 251 | 1.0 | 2.0 | 0.00 | 0.00 | 0.00 | 84 | 1017.2 |
| 20260508064540 | 38 | 251 | 0.0 | 2.0 | 0.00 | 0.00 | 0.00 | 84 | 1015.0 |
| 20260508064523 | 38 | 251 | 1.0 | 2.0 | 0.00 | 0.00 | 0.00 | 84 | 1017.2 |
| 20260508064328 | 38 | 251 | 0.0 | 2.0 | 0.00 | 0.00 | 0.00 | 84 | 1017.2 |
| 20260508063811 | 38 | 251 | 0.0 | 1.0 | 0.00 | 0.00 | 0.00 | 84 | 1017.1 |
| 20260508063320 | 38 | 251 | 0.0 | 0.0 | 0.00 | 0.00 | 0.00 | 84 | 1017.1 |
| 20260508063041 | 38 | 0 | 0.0 | 0.0 | 0.00 | 0.00 | 0.00 | 84 | 1015.0 |
| 20260508063012 | 38 | 251 | 0.0 | 0.0 | 0.00 | 0.00 | 0.00 | 84 | 1017.1 |
| 20260508062828 | 38 | 251 | 0.0 | 0.0 | 0.00 | 0.00 | 0.00 | 84 | 1017.1 |
| 20260508062317 | 38 | 251 | 0.0 | 0.0 | 0.00 | 0.00 | 0.00 | 84 | 1017.1 |
| 20260508061827 | 39 | 251 | 0.0 | 0.0 | 0.00 | 0.00 | 0.00 | 84 | 1017.1 |
| 20260508061543 | 38 | 251 | 0.0 | 0.0 | 0.00 | 0.00 | 0.00 | 84 | 1017.1 |
| 20260508061538 | 38 | 0 | 0.0 | 0.0 | 0.00 | 0.00 | 0.00 | 84 | 1014.7 |
| 20260508061328 | 39 | 251 | 0.0 | 0.0 | 0.00 | 0.00 | 0.00 | 84 | 1016.9 |
| 20260508060816 | 39 | 251 | 0.0 | 0.0 | 0.00 | 0.00 | 0.00 | 84 | 1016.9 |
| 20260508060324 | 39 | 251 | 0.0 | 0.0 | 0.00 | 0.00 | 0.00 | 84 | 1017.0 |
| 20260508060037 | 39 | 0 | 0.0 | 0.0 | 0.00 | 0.00 | 0.00 | 83 | 1014.7 |
| 20260508060021 | 39 | 251 | 0.0 | 0.0 | 0.00 | 0.00 | 0.00 | 84 | 1017.0 |
| 20260508055832 | 39 | 251 | 0.0 | 0.0 | 0.00 | 0.00 | 0.00 | 84 | 1017.1 |
| 20260508055316 | 39 | 251 | 0.0 | 2.0 | 0.00 | 0.00 | 0.00 | 84 | 1017.1 |
| 20260508054824 | 39 | 251 | 0.0 | 2.0 | 0.00 | 0.00 | 0.00 | 84 | 1017.0 |
| 20260508054537 | 39 | 251 | 0.0 | 2.0 | 0.00 | 0.00 | 0.00 | 83 | 1014.9 |
| 20260508054506 | 39 | 251 | 0.0 | 2.0 | 0.00 | 0.00 | 0.00 | 84 | 1017.1 |
| 20260508054313 | 39 | 251 | 1.0 | 2.0 | 0.00 | 0.00 | 0.00 | 84 | 1017.1 |
| 20260508053822 | 39 | 251 | 0.0 | 2.0 | 0.00 | 0.00 | 0.00 | 83 | 1017.1 |
| 20260508053325 | 39 | 251 | 1.0 | 2.0 | 0.00 | 0.00 | 0.00 | 83 | 1017.2 |
| 20260508053058 | 39 | 0 | 0.0 | 2.0 | 0.00 | 0.00 | 0.00 | 83 | 1015.0 |
| 20260508053055 | 39 | 251 | 0.0 | 2.0 | 0.00 | 0.00 | 0.00 | 83 | 1017.2 |
| 20260508052834 | 40 | 251 | 0.0 | 2.0 | 0.00 | 0.00 | 0.00 | 83 | 1017.2 |
| 20260508052322 | 40 | 251 | 0.0 | 2.0 | 0.00 | 0.00 | 0.00 | 83 | 1017.3 |
| 20260508051833 | 40 | 251 | 1.0 | 1.0 | 0.00 | 0.00 | 0.00 | 83 | 1017.2 |
| 20260508051553 | 39 | 250 | 0.0 | 1.0 | 0.00 | 0.00 | 0.00 | 83 | 1017.2 |
| 20260508051535 | 39 | 0 | 0.0 | 1.0 | 0.00 | 0.00 | 0.00 | 82 | 1014.9 |
| 20260508051349 | 40 | 250 | 0.0 | 0.0 | 0.00 | 0.00 | 0.00 | 83 | 1017.3 |
| 20260508050829 | 40 | 250 | 0.0 | 0.0 | 0.00 | 0.00 | 0.00 | 83 | 1017.3 |
| 20260508050318 | 40 | 250 | 0.0 | 2.0 | 0.00 | 0.00 | 0.00 | 83 | 1017.3 |
| 20260508050040 | 40 | 0 | 0.0 | 2.0 | 0.00 | 0.00 | 0.00 | 82 | 1014.9 |
| 20260508050019 | 40 | 250 | 0.0 | 2.0 | 0.00 | 0.00 | 0.00 | 83 | 1017.3 |
| 20260508045822 | 40 | 250 | 0.0 | 2.0 | 0.00 | 0.00 | 0.00 | 82 | 1017.2 |
| 20260508045352 | 40 | 250 | 0.0 | 1.0 | 0.00 | 0.00 | 0.00 | 82 | 1017.2 |
| 20260508044815 | 41 | 250 | 0.0 | 2.0 | 0.00 | 0.00 | 0.00 | 82 | 1017.3 |
| 20260508044555 | 40 | 250 | 0.0 | 2.0 | 0.00 | 0.00 | 0.00 | 82 | 1017.2 |
| 20260508044537 | 40 | 250 | 0.0 | 2.0 | 0.00 | 0.00 | 0.00 | 81 | 1015.0 |
| 20260508044322 | 41 | 250 | 0.0 | 2.0 | 0.00 | 0.00 | 0.00 | 82 | 1017.3 |
| 20260508043811 | 41 | 250 | 0.0 | 2.0 | 0.00 | 0.00 | 0.00 | 82 | 1017.3 |
| 20260508043321 | 41 | 250 | 1.0 | 2.0 | 0.00 | 0.00 | 0.00 | 81 | 1017.3 |
| 20260508043037 | 41 | 250 | 0.0 | 2.0 | 0.00 | 0.00 | 0.00 | 81 | 1014.9 |
| 20260508043029 | 41 | 250 | 0.0 | 2.0 | 0.00 | 0.00 | 0.00 | 81 | 1017.2 |
| 20260508042829 | 41 | 250 | 0.0 | 0.0 | 0.00 | 0.00 | 0.00 | 81 | 1017.2 |
| 20260508042309 | 41 | 250 | 0.0 | 0.0 | 0.00 | 0.00 | 0.00 | 81 | 1017.1 |
| 20260508041839 | 41 | 250 | 0.0 | 0.0 | 0.00 | 0.00 | 0.00 | 81 | 1017.1 |
| 20260508041603 | 41 | 0 | 0.0 | 0.0 | 0.00 | 0.00 | 0.00 | 80 | 1014.8 |
| 20260508041553 | 41 | 250 | 0.0 | 0.0 | 0.00 | 0.00 | 0.00 | 81 | 1017.1 |
| 20260508041327 | 42 | 250 | 0.0 | 0.0 | 0.00 | 0.00 | 0.00 | 80 | 1017.1 |
| 20260508040815 | 42 | 250 | 0.0 | 0.0 | 0.00 | 0.00 | 0.00 | 80 | 1017.1 |
| 20260508040323 | 42 | 250 | 0.0 | 0.0 | 0.00 | 0.00 | 0.00 | 80 | 1017.1 |
| 20260508040043 | 42 | 0 | 0.0 | 0.0 | 0.00 | 0.00 | 0.00 | 79 | 1014.8 |
| 20260508040020 | 42 | 250 | 0.0 | 0.0 | 0.00 | 0.00 | 0.00 | 80 | 1017.0 |
| 20260508035834 | 42 | 250 | 0.0 | 0.0 | 0.00 | 0.00 | 0.00 | 79 | 1017.0 |
| 20260508035315 | 42 | 250 | 0.0 | 0.0 | 0.00 | 0.00 | 0.00 | 79 | 1017.1 |
| 20260508034833 | 43 | 250 | 0.0 | 0.0 | 0.00 | 0.00 | 0.00 | 79 | 1017.0 |
| 20260508034600 | 42 | 250 | 0.0 | 0.0 | 0.00 | 0.00 | 0.00 | 79 | 1016.9 |
| 20260508034538 | 42 | 0 | 0.0 | 0.0 | 0.00 | 0.00 | 0.00 | 78 | 1014.7 |
| 20260508034314 | 43 | 250 | 0.0 | 0.0 | 0.00 | 0.00 | 0.00 | 78 | 1017.1 |
| 20260508033821 | 43 | 250 | 0.0 | 0.0 | 0.00 | 0.00 | 0.00 | 78 | 1017.0 |
| 20260508033349 | 43 | 250 | 0.0 | 0.0 | 0.00 | 0.00 | 0.00 | 77 | 1017.1 |
| 20260508033057 | 43 | 250 | 0.0 | 0.0 | 0.00 | 0.00 | 0.00 | 77 | 1016.8 |
| 20260508033037 | 43 | 0 | 0.0 | 0.0 | 0.00 | 0.00 | 0.00 | 76 | 1014.7 |
| 20260508032816 | 43 | 250 | 0.0 | 0.0 | 0.00 | 0.00 | 0.00 | 77 | 1017.0 |
| 20260508032324 | 44 | 250 | 0.0 | 0.0 | 0.00 | 0.00 | 0.00 | 76 | 1016.9 |
| 20260508031833 | 44 | 250 | 0.0 | 0.0 | 0.00 | 0.00 | 0.00 | 76 | 1017.0 |
| 20260508031554 | 44 | 250 | 0.0 | 0.0 | 0.00 | 0.00 | 0.00 | 75 | 1016.8 |
| 20260508031540 | 44 | 0 | 0.0 | 0.0 | 0.00 | 0.00 | 0.00 | 75 | 1014.7 |
| 20260508031314 | 44 | 250 | 0.0 | 0.0 | 0.00 | 0.00 | 0.00 | 75 | 1016.9 |
| 20260508030822 | 44 | 250 | 0.0 | 0.0 | 0.00 | 0.00 | 0.00 | 75 | 1016.9 |
| 20260508030309 | 45 | 250 | 0.0 | 0.0 | 0.00 | 0.00 | 0.00 | 75 | 1016.8 |
| 20260508030037 | 44 | 0 | 0.0 | 0.0 | 0.00 | 0.00 | 0.00 | 74 | 1014.6 |
| 20260508030006 | 44 | 250 | 0.0 | 0.0 | 0.00 | 0.00 | 0.00 | 74 | 1016.6 |
| 20260508025838 | 45 | 250 | 0.0 | 0.0 | 0.00 | 0.00 | 0.00 | 74 | 1016.6 |
| 20260508025326 | 45 | 250 | 0.0 | 0.0 | 0.00 | 0.00 | 0.00 | 73 | 1016.6 |
| 20260508024814 | 45 | 250 | 0.0 | 0.0 | 0.00 | 0.00 | 0.00 | 72 | 1016.5 |
| 20260508024544 | 45 | 0 | 0.0 | 0.0 | 0.00 | 0.00 | 0.00 | 71 | 1014.4 |
| 20260508024535 | 45 | 250 | 0.0 | 0.0 | 0.00 | 0.00 | 0.00 | 72 | 1016.4 |
| 20260508024318 | 46 | 250 | 0.0 | 0.0 | 0.00 | 0.00 | 0.00 | 71 | 1016.5 |
| 20260508023825 | 46 | 250 | 0.0 | 0.0 | 0.00 | 0.00 | 0.00 | 70 | 1016.4 |
| 20260508023314 | 46 | 251 | 0.0 | 0.0 | 0.00 | 0.00 | 0.00 | 69 | 1016.5 |
| 20260508023037 | 46 | 0 | 0.0 | 0.0 | 0.00 | 0.00 | 0.00 | 68 | 1014.1 |
| 20260508023035 | 46 | 251 | 0.0 | 0.0 | 0.00 | 0.00 | 0.00 | 68 | 1016.3 |
| 20260508022823 | 46 | 251 | 0.0 | 0.0 | 0.00 | 0.00 | 0.00 | 68 | 1016.4 |
| 20260508022332 | 47 | 251 | 0.0 | 0.0 | 0.00 | 0.00 | 0.00 | 67 | 1016.4 |
| 20260508021815 | 47 | 251 | 0.0 | 0.0 | 0.00 | 0.00 | 0.00 | 66 | 1016.2 |
| 20260508021618 | 47 | 251 | 0.0 | 0.0 | 0.00 | 0.00 | 0.00 | 66 | 1016.0 |
| 20260508021540 | 47 | 0 | 0.0 | 0.0 | 0.00 | 0.00 | 0.00 | 66 | 1013.9 |
| 20260508021324 | 48 | 251 | 0.0 | 0.0 | 0.00 | 0.00 | 0.00 | 66 | 1016.1 |
| 20260508020835 | 48 | 251 | 0.0 | 0.0 | 0.00 | 0.00 | 0.00 | 65 | 1016.1 |
| 20260508020325 | 49 | 251 | 0.0 | 0.0 | 0.00 | 0.00 | 0.00 | 65 | 1015.9 |
| 20260508020045 | 48 | 0 | 0.0 | 0.0 | 0.00 | 0.00 | 0.00 | 65 | 1013.7 |
| 20260508020030 | 48 | 251 | 0.0 | 0.0 | 0.00 | 0.00 | 0.00 | 65 | 1015.7 |
| 20260508015835 | 49 | 251 | 0.0 | 0.0 | 0.00 | 0.00 | 0.00 | 65 | 1015.9 |
| 20260508015318 | 49 | 251 | 0.0 | 0.0 | 0.00 | 0.00 | 0.00 | 62 | 1015.9 |
| 20260508014811 | 50 | 251 | 0.0 | 0.0 | 0.00 | 0.00 | 0.00 | 59 | 1015.9 |
| 20260508014603 | 49 | 251 | 0.0 | 0.0 | 0.00 | 0.00 | 0.00 | 59 | 1015.7 |
| 20260508014537 | 49 | 0 | 0.0 | 0.0 | 0.00 | 0.00 | 0.00 | 59 | 1013.7 |
| 20260508014319 | 50 | 251 | 0.0 | 0.0 | 0.00 | 0.00 | 0.00 | 58 | 1015.8 |
| 20260508013829 | 51 | 251 | 0.0 | 0.0 | 0.00 | 0.00 | 0.00 | 57 | 1015.7 |
| 20260508013312 | 51 | 251 | 0.0 | 0.0 | 0.00 | 0.00 | 0.00 | 58 | 1015.7 |
| 20260508013050 | 51 | 251 | 0.0 | 0.0 | 0.00 | 0.00 | 0.00 | 61 | 1015.5 |
| 20260508013036 | 51 | 0 | 0.0 | 0.0 | 0.00 | 0.00 | 0.00 | 60 | 1013.4 |
| 20260508012821 | 52 | 251 | 0.0 | 0.0 | 0.00 | 0.00 | 0.00 | 59 | 1015.7 |
| 20260508012309 | 52 | 251 | 0.0 | 0.0 | 0.00 | 0.00 | 0.00 | 61 | 1015.6 |
| 20260508011819 | 53 | 251 | 0.0 | 0.0 | 0.00 | 0.00 | 0.00 | 61 | 1015.5 |
| 20260508011542 | 52 | 251 | 0.0 | 0.0 | 0.00 | 0.00 | 0.00 | 60 | 1015.2 |
| 20260508011538 | 52 | 0 | 0.0 | 0.0 | 0.00 | 0.00 | 0.00 | 59 | 1013.3 |
| 20260508011323 | 53 | 251 | 0.0 | 0.0 | 0.00 | 0.00 | 0.00 | 60 | 1015.4 |
| 20260508010814 | 53 | 251 | 0.0 | 1.0 | 0.00 | 0.00 | 0.00 | 58 | 1015.2 |
| 20260508010323 | 53 | 251 | 0.0 | 2.0 | 0.00 | 0.00 | 0.00 | 54 | 1015.2 |
| 20260508010039 | 53 | 0 | 0.0 | 3.0 | 0.00 | 0.00 | 0.00 | 54 | 1013.1 |
| 20260508010035 | 53 | 251 | 0.0 | 3.0 | 0.00 | 0.00 | 0.00 | 54 | 1015.0 |
| 20260508005834 | 54 | 250 | 1.0 | 3.0 | 0.00 | 0.00 | 0.00 | 55 | 1015.2 |
| 20260508005324 | 54 | 251 | 1.0 | 3.0 | 0.00 | 0.00 | 0.00 | 56 | 1015.1 |
| 20260508004833 | 55 | 254 | 1.0 | 3.0 | 0.00 | 0.00 | 0.00 | 54 | 1015.2 |
| 20260508004537 | 54 | 265 | 1.0 | 2.0 | 0.00 | 0.00 | 0.00 | 52 | 1012.9 |
| 20260508004524 | 54 | 265 | 1.0 | 2.0 | 0.00 | 0.00 | 0.00 | 52 | 1015.0 |
| 20260508004322 | 55 | 251 | 1.0 | 2.0 | 0.00 | 0.00 | 0.00 | 53 | 1015.1 |
| 20260508003825 | 56 | 254 | 0.0 | 2.0 | 0.00 | 0.00 | 0.00 | 52 | 1015.0 |
| 20260508003336 | 56 | 251 | 1.0 | 2.0 | 0.00 | 0.00 | 0.00 | 48 | 1014.9 |
| 20260508003102 | 56 | 251 | 0.0 | 2.0 | 0.00 | 0.00 | 0.00 | 48 | 1014.8 |
| 20260508003039 | 56 | 251 | 1.0 | 2.0 | 0.00 | 0.00 | 0.00 | 48 | 1012.9 |
| 20260508002824 | 56 | 254 | 1.0 | 2.0 | 0.00 | 0.00 | 0.00 | 44 | 1014.9 |
| 20260508002315 | 57 | 268 | 1.0 | 2.0 | 0.00 | 0.00 | 0.00 | 44 | 1014.9 |
| 20260508001827 | 58 | 286 | 1.0 | 2.0 | 0.00 | 0.00 | 0.00 | 44 | 1014.8 |
| 20260508001543 | 57 | 269 | 1.0 | 2.0 | 0.00 | 0.00 | 0.00 | 45 | 1014.6 |
| 20260508001540 | 57 | 269 | 0.0 | 4.0 | 0.00 | 0.00 | 0.00 | 41 | 1012.7 |
| 20260508001310 | 58 | 277 | 0.0 | 4.0 | 0.00 | 0.00 | 0.00 | 39 | 1014.8 |
| 20260508000819 | 58 | 277 | 0.0 | 4.0 | 0.00 | 0.00 | 0.00 | 39 | 1014.7 |
| 20260508000329 | 58 | 290 | 1.0 | 3.0 | 0.00 | 0.00 | 0.00 | 38 | 1014.7 |
| 20260508000038 | 58 | 293 | 0.0 | 3.0 | 0.00 | 0.00 | 0.00 | 37 | 1012.4 |
| 20260508000033 | 58 | 293 | 0.0 | 3.0 | 0.00 | 0.00 | 0.00 | 37 | 1014.4 |
| 20260507235811 | 59 | 288 | 0.0 | 3.0 | 0.00 | 0.00 | 0.00 | 38 | 1014.6 |
| 20260507235322 | 59 | 248 | 1.0 | 4.0 | 0.00 | 0.00 | 0.00 | 38 | 1014.5 |
| 20260507234810 | 59 | 194 | 1.0 | 4.0 | 0.00 | 0.00 | 0.00 | 37 | 1014.5 |
| 20260507234552 | 59 | 150 | 1.0 | 4.0 | 0.00 | 0.00 | 0.00 | 36 | 1014.3 |
| 20260507234537 | 59 | 0 | 0.0 | 4.0 | 0.00 | 0.00 | 0.00 | 36 | 1012.2 |
| 20260507234349 | 59 | 102 | 0.0 | 4.0 | 0.00 | 0.00 | 0.00 | 38 | 1014.4 |
| 20260507233828 | 60 | 229 | 1.0 | 3.0 | 0.00 | 0.00 | 0.00 | 38 | 1014.4 |
| 20260507233318 | 60 | 349 | 1.0 | 4.0 | 0.00 | 0.00 | 0.00 | 38 | 1014.3 |
| 20260507233054 | 59 | 238 | 0.0 | 4.0 | 0.00 | 0.00 | 0.00 | 38 | 1012.2 |
| 20260507233018 | 59 | 239 | 0.0 | 4.0 | 0.00 | 0.00 | 0.00 | 38 | 1014.2 |
| 20260507232828 | 60 | 255 | 2.0 | 4.0 | 0.00 | 0.00 | 0.00 | 37 | 1014.3 |
| 20260507232310 | 60 | 113 | 1.0 | 8.0 | 0.00 | 0.00 | 0.00 | 37 | 1014.3 |
| 20260507231820 | 60 | 303 | 3.0 | 8.0 | 0.00 | 0.00 | 0.00 | 37 | 1014.3 |
| 20260507231602 | 60 | 277 | 0.0 | 8.0 | 0.00 | 0.00 | 0.00 | 37 | 1014.1 |
| 20260507231539 | 60 | 261 | 2.0 | 8.0 | 0.00 | 0.00 | 0.00 | 36 | 1012.1 |
| 20260507231310 | 61 | 284 | 1.0 | 4.0 | 0.00 | 0.00 | 0.00 | 38 | 1014.3 |
| 20260507230820 | 61 | 227 | 0.0 | 3.0 | 0.00 | 0.00 | 0.00 | 39 | 1014.2 |
| 20260507230331 | 61 | 85 | 1.0 | 5.0 | 0.00 | 0.00 | 0.00 | 38 | 1014.1 |
| 20260507230044 | 61 | 264 | 1.0 | 5.0 | 0.00 | 0.00 | 0.00 | 37 | 1013.9 |
| 20260507230040 | 61 | 267 | 1.0 | 6.0 | 0.00 | 0.00 | 0.00 | 38 | 1011.9 |
| 20260507225815 | 62 | 157 | 1.0 | 5.0 | 0.00 | 0.00 | 0.00 | 38 | 1014.0 |
| 20260507225324 | 62 | 338 | 1.0 | 5.0 | 0.00 | 0.00 | 0.00 | 38 | 1014.0 |
| 20260507224813 | 63 | 271 | 1.0 | 2.0 | 0.00 | 0.00 | 0.00 | 39 | 1014.0 |
| 20260507224539 | 63 | 263 | 0.0 | 4.0 | 0.00 | 0.00 | 0.00 | 38 | 1011.8 |
| 20260507224531 | 63 | 263 | 0.0 | 4.0 | 0.00 | 0.00 | 0.00 | 39 | 1013.8 |
| 20260507224322 | 64 | 319 | 0.0 | 4.0 | 0.00 | 0.00 | 0.00 | 41 | 1014.0 |
| 20260507223833 | 64 | 360 | 1.0 | 5.0 | 0.00 | 0.00 | 0.00 | 40 | 1013.9 |
| 20260507223317 | 64 | 329 | 2.0 | 5.0 | 0.00 | 0.00 | 0.00 | 37 | 1013.9 |
| 20260507223034 | 63 | 280 | 0.0 | 7.0 | 0.00 | 0.00 | 0.00 | 41 | 1011.7 |
| 20260507223004 | 63 | 121 | 0.0 | 7.0 | 0.00 | 0.00 | 0.00 | 41 | 1013.7 |
| 20260507222846 | 64 | 277 | 0.0 | 7.0 | 0.00 | 0.00 | 0.00 | 42 | 1013.7 |
| 20260507222315 | 64 | 306 | 1.0 | 7.0 | 0.00 | 0.00 | 0.00 | 43 | 1013.5 |
| 20260507221822 | 63 | 310 | 1.0 | 6.0 | 0.00 | 0.00 | 0.00 | 42 | 1013.5 |
| 20260507221538 | 63 | 0 | 1.0 | 6.0 | 0.00 | 0.00 | 0.00 | 41 | 1011.6 |
| 20260507221536 | 63 | 228 | 1.0 | 6.0 | 0.00 | 0.00 | 0.00 | 42 | 1013.4 |
| 20260507221332 | 63 | 279 | 2.0 | 6.0 | 0.00 | 0.00 | 0.00 | 41 | 1013.7 |
| 20260507220815 | 63 | 318 | 2.0 | 6.0 | 0.00 | 0.00 | 0.00 | 43 | 1013.7 |
| 20260507220344 | 63 | 91 | 2.0 | 8.0 | 0.00 | 0.00 | 0.00 | 43 | 1013.6 |
| 20260507220050 | 62 | 54 | 1.0 | 8.0 | 0.00 | 0.00 | 0.00 | 42 | 1013.4 |
| 20260507220039 | 62 | 51 | 1.0 | 8.0 | 0.00 | 0.00 | 0.00 | 40 | 1011.6 |
| 20260507215812 | 63 | 314 | 2.0 | 8.0 | 0.00 | 0.00 | 0.00 | 42 | 1013.5 |
| 20260507215342 | 63 | 279 | 1.0 | 9.0 | 0.00 | 0.00 | 0.00 | 44 | 1013.4 |
| 20260507214829 | 63 | 270 | 3.0 | 9.0 | 0.00 | 0.00 | 0.00 | 45 | 1013.5 |
| 20260507214559 | 62 | 5 | 0.0 | 3.0 | 0.00 | 0.00 | 0.00 | 49 | 1013.3 |
| 20260507214537 | 62 | 0 | 0.0 | 3.0 | 0.00 | 0.00 | 0.00 | 48 | 1011.4 |
| 20260507214317 | 63 | 10 | 1.0 | 3.0 | 0.00 | 0.00 | 0.00 | 45 | 1013.4 |
| 20260507213826 | 63 | 324 | 1.0 | 3.0 | 0.00 | 0.00 | 0.00 | 43 | 1013.4 |
| 20260507213334 | 63 | 348 | 1.0 | 3.0 | 0.00 | 0.00 | 0.00 | 44 | 1013.4 |
| 20260507213050 | 63 | 46 | 1.0 | 3.0 | 0.00 | 0.00 | 0.00 | 43 | 1013.3 |
| 20260507213041 | 63 | 46 | 0.0 | 3.0 | 0.00 | 0.00 | 0.00 | 42 | 1011.4 |
| 20260507212844 | 64 | 55 | 0.0 | 3.0 | 0.00 | 0.00 | 0.00 | 45 | 1013.3 |
| 20260507212335 | 64 | 15 | 1.0 | 3.0 | 0.00 | 0.00 | 0.00 | 41 | 1013.3 |
| 20260507211816 | 64 | 38 | 2.0 | 8.0 | 0.00 | 0.00 | 0.00 | 42 | 1013.2 |
| 20260507211532 | 64 | 0 | 2.0 | 8.0 | 0.00 | 0.00 | 0.00 | 40 | 1011.0 |
| 20260507211503 | 64 | 269 | 2.0 | 8.0 | 0.00 | 0.00 | 0.00 | 41 | 1013.0 |
| 20260507211310 | 64 | 312 | 3.0 | 6.0 | 0.00 | 0.00 | 0.00 | 39 | 1013.2 |
| 20260507210819 | 64 | 115 | 2.0 | 11.0 | 0.00 | 0.00 | 0.00 | 40 | 1013.3 |
| 20260507210320 | 65 | 39 | 3.0 | 11.0 | 0.00 | 0.00 | 0.00 | 41 | 1013.2 |
| 20260507210116 | 64 | 219 | 5.0 | 11.0 | 0.00 | 0.00 | 0.00 | 39 | 1012.9 |
| 20260507210045 | 64 | 281 | 3.0 | 11.0 | 0.00 | 0.00 | 0.00 | 38 | 1010.9 |
| 20260507205829 | 65 | 198 | 2.0 | 5.0 | 0.00 | 0.00 | 0.00 | 40 | 1013.0 |
| 20260507205319 | 65 | 30 | 1.0 | 3.0 | 0.00 | 0.00 | 0.00 | 41 | 1012.9 |
| 20260507204849 | 65 | 288 | 1.0 | 5.0 | 0.00 | 0.00 | 0.00 | 43 | 1012.9 |
| 20260507204540 | 64 | 112 | 2.0 | 6.0 | 0.00 | 0.00 | 0.00 | 42 | 1010.8 |
| 20260507204521 | 64 | 113 | 2.0 | 5.0 | 0.00 | 0.00 | 0.00 | 43 | 1012.8 |
| 20260507204338 | 65 | 196 | 2.0 | 5.0 | 0.00 | 0.00 | 0.00 | 40 | 1013.1 |
| 20260507203828 | 65 | 234 | 2.0 | 6.0 | 0.00 | 0.00 | 0.00 | 42 | 1013.0 |
| 20260507203336 | 65 | 49 | 1.0 | 4.0 | 0.00 | 0.00 | 0.00 | 43 | 1013.0 |
| 20260507203043 | 64 | 34 | 1.0 | 8.0 | 0.00 | 0.00 | 0.00 | 41 | 1010.8 |
| 20260507203027 | 64 | 31 | 1.0 | 8.0 | 0.00 | 0.00 | 0.00 | 42 | 1012.8 |
| 20260507202824 | 65 | 35 | 1.0 | 8.0 | 0.00 | 0.00 | 0.00 | 41 | 1012.9 |
| 20260507202333 | 65 | 296 | 2.0 | 6.0 | 0.00 | 0.00 | 0.00 | 40 | 1013.1 |
| 20260507201816 | 65 | 5 | 1.0 | 6.0 | 0.00 | 0.00 | 0.00 | 42 | 1013.1 |
| 20260507201539 | 65 | 88 | 2.0 | 8.0 | 0.00 | 0.00 | 0.00 | 40 | 1010.9 |
| 20260507201516 | 65 | 27 | 2.0 | 6.0 | 0.00 | 0.00 | 0.00 | 40 | 1013.0 |
| 20260507201345 | 66 | 153 | 1.0 | 8.0 | 0.00 | 0.00 | 0.00 | 40 | 1013.1 |
| 20260507200811 | 66 | 12 | 2.0 | 8.0 | 0.00 | 0.00 | 0.00 | 39 | 1013.1 |
| 20260507200319 | 66 | 281 | 2.0 | 7.0 | 0.00 | 0.00 | 0.00 | 44 | 1013.1 |
| 20260507200051 | 66 | 321 | 1.0 | 5.0 | 0.00 | 0.00 | 0.00 | 47 | 1013.0 |
| 20260507200038 | 66 | 0 | 1.0 | 5.0 | 0.00 | 0.00 | 0.00 | 46 | 1010.9 |
| 20260507195849 | 66 | 97 | 2.0 | 5.0 | 0.00 | 0.00 | 0.00 | 43 | 1013.1 |
| 20260507195311 | 66 | 99 | 2.0 | 8.0 | 0.00 | 0.00 | 0.00 | 43 | 1013.2 |
| 20260507194819 | 67 | 267 | 3.0 | 8.0 | 0.00 | 0.00 | 0.00 | 40 | 1013.3 |
| 20260507194621 | 67 | 244 | 2.0 | 6.0 | 0.00 | 0.00 | 0.00 | 38 | 1011.2 |
| 20260507194558 | 67 | 161 | 2.0 | 6.0 | 0.00 | 0.00 | 0.00 | 39 | 1013.2 |
| 20260507194328 | 67 | 291 | 2.0 | 6.0 | 0.00 | 0.00 | 0.00 | 41 | 1013.2 |
| 20260507193817 | 67 | 315 | 3.0 | 8.0 | 0.00 | 0.00 | 0.00 | 41 | 1013.3 |
| 20260507193346 | 66 | 319 | 3.0 | 8.0 | 0.00 | 0.00 | 0.00 | 41 | 1013.2 |
| 20260507193040 | 65 | 308 | 3.0 | 8.0 | 0.00 | 0.00 | 0.00 | 42 | 1013.1 |
| 20260507193038 | 65 | 318 | 2.0 | 8.0 | 0.00 | 0.00 | 0.00 | 40 | 1011.2 |
| 20260507192833 | 66 | 298 | 1.0 | 8.0 | 0.00 | 0.00 | 0.00 | 43 | 1013.4 |
| 20260507192314 | 65 | 229 | 2.0 | 4.0 | 0.00 | 0.00 | 0.00 | 45 | 1013.6 |
| 20260507191823 | 65 | 203 | 2.0 | 6.0 | 0.00 | 0.00 | 0.00 | 45 | 1013.7 |
| 20260507191610 | 64 | 331 | 1.0 | 8.0 | 0.00 | 0.00 | 0.00 | 45 | 1013.7 |
| 20260507191537 | 64 | 85 | 1.0 | 8.0 | 0.00 | 0.00 | 0.00 | 44 | 1011.6 |
| 20260507191312 | 65 | 270 | 2.0 | 8.0 | 0.00 | 0.00 | 0.00 | 42 | 1013.9 |
| 20260507190821 | 65 | 154 | 3.0 | 8.0 | 0.00 | 0.00 | 0.00 | 42 | 1013.8 |
| 20260507190324 | 65 | 130 | 2.0 | 6.0 | 0.00 | 0.00 | 0.00 | 46 | 1013.7 |
| 20260507190049 | 65 | 322 | 1.0 | 6.0 | 0.00 | 0.00 | 0.00 | 44 | 1013.7 |
| 20260507190037 | 65 | 141 | 1.0 | 10.0 | 0.00 | 0.00 | 0.00 | 44 | 1011.7 |
| 20260507185834 | 65 | 311 | 2.0 | 9.0 | 0.00 | 0.00 | 0.00 | 44 | 1013.8 |
| 20260507185322 | 66 | 300 | 3.0 | 10.0 | 0.00 | 0.00 | 0.00 | 43 | 1013.8 |
| 20260507184809 | 66 | 318 | 2.0 | 5.0 | 0.00 | 0.00 | 0.00 | 45 | 1013.8 |
| 20260507184538 | 66 | 15 | 2.0 | 6.0 | 0.00 | 0.00 | 0.00 | 43 | 1011.7 |
| 20260507184508 | 66 | 28 | 2.0 | 5.0 | 0.00 | 0.00 | 0.00 | 43 | 1013.9 |
| 20260507184318 | 66 | 95 | 3.0 | 5.0 | 0.00 | 0.00 | 0.00 | 46 | 1014.0 |
| 20260507183828 | 67 | 110 | 1.0 | 7.0 | 0.00 | 0.00 | 0.00 | 42 | 1014.1 |
| 20260507183329 | 67 | 297 | 3.0 | 7.0 | 0.00 | 0.00 | 0.00 | 39 | 1014.0 |
| 20260507183102 | 67 | 165 | 3.0 | 7.0 | 0.00 | 0.00 | 0.00 | 41 | 1013.8 |
| 20260507183044 | 67 | 171 | 2.0 | 7.0 | 0.00 | 0.00 | 0.00 | 43 | 1011.7 |
| 20260507182816 | 67 | 16 | 2.0 | 7.0 | 0.00 | 0.00 | 0.00 | 42 | 1013.9 |
| 20260507182325 | 67 | 135 | 3.0 | 6.0 | 0.00 | 0.00 | 0.00 | 44 | 1013.8 |
| 20260507181833 | 66 | 10 | 2.0 | 9.0 | 0.00 | 0.00 | 0.00 | 52 | 1013.7 |
| 20260507181539 | 65 | 142 | 1.0 | 9.0 | 0.00 | 0.00 | 0.00 | 45 | 1013.7 |
| 20260507181532 | 65 | 197 | 2.0 | 9.0 | 0.00 | 0.00 | 0.00 | 45 | 1011.6 |
| 20260507181314 | 65 | 298 | 2.0 | 9.0 | 0.00 | 0.00 | 0.00 | 43 | 1013.8 |
| 20260507180822 | 66 | 336 | 2.0 | 5.0 | 0.00 | 0.00 | 0.00 | 46 | 1014.0 |
| 20260507180310 | 66 | 297 | 1.0 | 9.0 | 0.00 | 0.00 | 0.00 | 42 | 1014.0 |
| 20260507180037 | 65 | 176 | 3.0 | 9.0 | 0.00 | 0.00 | 0.00 | 41 | 1011.6 |
| 20260507180026 | 65 | 176 | 2.0 | 9.0 | 0.00 | 0.00 | 0.00 | 41 | 1013.8 |
| 20260507175840 | 66 | 238 | 4.0 | 9.0 | 0.00 | 0.00 | 0.00 | 43 | 1014.0 |
| 20260507175330 | 65 | 182 | 3.0 | 5.0 | 0.00 | 0.00 | 0.00 | 47 | 1014.1 |
| 20260507174815 | 65 | 189 | 2.0 | 5.0 | 0.00 | 0.00 | 0.00 | 47 | 1014.1 |
| 20260507174608 | 65 | 265 | 2.0 | 6.0 | 0.00 | 0.00 | 0.00 | 46 | 1013.9 |
| 20260507174544 | 65 | 298 | 1.0 | 8.0 | 0.00 | 0.00 | 0.00 | 45 | 1011.8 |
| 20260507174324 | 66 | 138 | 1.0 | 8.0 | 0.00 | 0.00 | 0.00 | 42 | 1014.1 |
| 20260507173833 | 66 | 232 | 3.0 | 8.0 | 0.00 | 0.00 | 0.00 | 44 | 1014.1 |
| 20260507173321 | 65 | 215 | 4.0 | 8.0 | 0.00 | 0.00 | 0.00 | 45 | 1014.1 |
| 20260507173054 | 65 | 194 | 1.0 | 5.0 | 0.00 | 0.00 | 0.00 | 46 | 1011.9 |
| 20260507173019 | 65 | 31 | 1.0 | 4.0 | 0.00 | 0.00 | 0.00 | 47 | 1014.0 |
| 20260507172811 | 66 | 101 | 2.0 | 5.0 | 0.00 | 0.00 | 0.00 | 45 | 1014.2 |
| 20260507172339 | 66 | 62 | 1.0 | 7.0 | 0.00 | 0.00 | 0.00 | 44 | 1014.2 |
| 20260507171827 | 66 | 10 | 2.0 | 8.0 | 0.00 | 0.00 | 0.00 | 47 | 1014.3 |
| 20260507171545 | 65 | 138 | 2.0 | 8.0 | 0.00 | 0.00 | 0.00 | 47 | 1014.1 |
| 20260507171309 | 65 | 173 | 3.0 | 5.0 | 0.00 | 0.00 | 0.00 | 49 | 1014.3 |
| 20260507170816 | 65 | 19 | 2.0 | 5.0 | 0.00 | 0.00 | 0.00 | 56 | 1014.3 |
| 20260507170345 | 64 | 355 | 2.0 | 4.0 | 0.00 | 0.00 | 0.00 | 51 | 1014.4 |
| 20260507170057 | 64 | 304 | 2.0 | 5.0 | 0.00 | 0.00 | 0.00 | 49 | 1014.2 |
| 20260507170039 | 64 | 323 | 2.0 | 5.0 | 0.00 | 0.00 | 0.00 | 47 | 1012.2 |
| 20260507165812 | 64 | 231 | 2.0 | 5.0 | 0.00 | 0.00 | 0.00 | 45 | 1014.3 |
| 20260507165320 | 64 | 5 | 3.0 | 4.0 | 0.00 | 0.00 | 0.00 | 46 | 1014.5 |
| 20260507164831 | 65 | 338 | 1.0 | 6.0 | 0.00 | 0.00 | 0.00 | 45 | 1014.5 |
| 20260507164546 | 65 | 19 | 2.0 | 6.0 | 0.00 | 0.00 | 0.00 | 44 | 1012.2 |
| 20260507164534 | 65 | 19 | 1.0 | 6.0 | 0.00 | 0.00 | 0.00 | 46 | 1014.4 |
| 20260507164340 | 65 | 22 | 3.0 | 6.0 | 0.00 | 0.00 | 0.00 | 46 | 1014.6 |
| 20260507163820 | 65 | 276 | 2.0 | 6.0 | 0.00 | 0.00 | 0.00 | 47 | 1014.6 |
| 20260507163327 | 65 | 109 | 2.0 | 4.0 | 0.00 | 0.00 | 0.00 | 51 | 1014.7 |
| 20260507163059 | 64 | 19 | 2.0 | 4.0 | 0.00 | 0.00 | 0.00 | 47 | 1014.5 |
| 20260507163037 | 64 | 17 | 1.0 | 5.0 | 0.00 | 0.00 | 0.00 | 47 | 1012.4 |
| 20260507162815 | 65 | 38 | 1.0 | 5.0 | 0.00 | 0.00 | 0.00 | 45 | 1014.7 |
| 20260507162323 | 65 | 168 | 2.0 | 5.0 | 0.00 | 0.00 | 0.00 | 48 | 1014.8 |
| 20260507161812 | 65 | 207 | 2.0 | 7.0 | 0.00 | 0.00 | 0.00 | 49 | 1014.8 |
| 20260507161554 | 64 | 196 | 3.0 | 9.0 | 0.00 | 0.00 | 0.00 | 46 | 1012.7 |
| 20260507161535 | 64 | 133 | 2.0 | 7.0 | 0.00 | 0.00 | 0.00 | 46 | 1014.8 |
| 20260507161315 | 65 | 339 | 4.0 | 7.0 | 0.00 | 0.00 | 0.00 | 48 | 1014.8 |
| 20260507160824 | 64 | 148 | 2.0 | 6.0 | 0.00 | 0.00 | 0.00 | 51 | 1014.9 |
| 20260507160311 | 64 | 130 | 2.0 | 6.0 | 0.00 | 0.00 | 0.00 | 48 | 1014.9 |
| 20260507160040 | 63 | 186 | 1.0 | 9.0 | 0.00 | 0.00 | 0.00 | 48 | 1012.8 |
| 20260507160031 | 63 | 238 | 1.0 | 8.0 | 0.00 | 0.01 | 0.00 | 48 | 1014.9 |
| 20260507155819 | 64 | 236 | 1.0 | 8.0 | 0.00 | 0.01 | 0.00 | 49 | 1014.8 |
| 20260507155321 | 64 | 289 | 4.0 | 8.0 | 0.00 | 0.01 | 0.00 | 52 | 1014.8 |
| 20260507154828 | 63 | 136 | 3.0 | 6.0 | 0.00 | 0.01 | 0.00 | 47 | 1014.9 |
| 20260507154542 | 63 | 45 | 2.0 | 7.0 | 0.00 | 0.01 | 0.00 | 48 | 1013.0 |
| 20260507154504 | 63 | 17 | 2.0 | 6.0 | 0.00 | 0.01 | 0.00 | 49 | 1015.0 |
| 20260507154318 | 63 | 324 | 3.0 | 6.0 | 0.00 | 0.01 | 0.00 | 50 | 1015.1 |
| 20260507153826 | 63 | 295 | 2.0 | 6.0 | 0.00 | 0.01 | 0.00 | 51 | 1015.0 |
| 20260507153313 | 63 | 117 | 3.0 | 6.0 | 0.00 | 0.01 | 0.00 | 50 | 1014.9 |
| 20260507153053 | 62 | 180 | 1.0 | 5.0 | 0.00 | 0.01 | 0.00 | 52 | 1015.0 |
| 20260507153038 | 62 | 212 | 1.0 | 5.0 | 0.00 | 0.01 | 0.00 | 51 | 1012.9 |
| 20260507152820 | 63 | 127 | 2.0 | 5.0 | 0.00 | 0.01 | 0.00 | 54 | 1015.0 |
| 20260507152310 | 62 | 171 | 1.0 | 5.0 | 0.00 | 0.01 | 0.00 | 55 | 1015.0 |
| 20260507151839 | 62 | 232 | 1.0 | 5.0 | 0.00 | 0.01 | 0.00 | 51 | 1015.1 |
| 20260507151534 | 62 | 284 | 1.0 | 5.0 | 0.00 | 0.01 | 0.00 | 53 | 1013.0 |
| 20260507151528 | 62 | 252 | 2.0 | 5.0 | 0.00 | 0.01 | 0.00 | 53 | 1015.0 |
| 20260507151343 | 62 | 22 | 2.0 | 3.0 | 0.00 | 0.01 | 0.00 | 54 | 1015.1 |
| 20260507150833 | 62 | 348 | 1.0 | 4.0 | 0.00 | 0.01 | 0.00 | 56 | 1015.1 |
| 20260507150320 | 62 | 34 | 2.0 | 3.0 | 0.00 | 0.01 | 0.00 | 59 | 1015.3 |
| 20260507150037 | 61 | 0 | 0.0 | 3.0 | 0.00 | 0.01 | 0.00 | 54 | 1013.1 |
| 20260507150025 | 61 | 194 | 0.0 | 3.0 | 0.00 | 0.02 | 0.00 | 54 | 1015.2 |
| 20260507145827 | 61 | 194 | 1.0 | 3.0 | 0.00 | 0.02 | 0.00 | 54 | 1015.2 |
| 20260507145339 | 62 | 285 | 0.0 | 5.0 | 0.00 | 0.02 | 0.00 | 59 | 1015.3 |
| 20260507144820 | 61 | 98 | 1.0 | 5.0 | 0.00 | 0.02 | 0.00 | 54 | 1015.3 |
| 20260507144559 | 61 | 38 | 0.0 | 3.0 | 0.00 | 0.02 | 0.00 | 56 | 1015.2 |
| 20260507144542 | 61 | 360 | 0.0 | 4.0 | 0.00 | 0.02 | 0.00 | 55 | 1013.1 |
| 20260507144312 | 61 | 248 | 1.0 | 4.0 | 0.00 | 0.02 | 0.00 | 54 | 1015.3 |
| 20260507143822 | 61 | 13 | 1.0 | 4.0 | 0.00 | 0.02 | 0.00 | 55 | 1015.2 |
| 20260507143332 | 61 | 30 | 3.0 | 5.0 | 0.00 | 0.02 | 0.00 | 52 | 1015.2 |
| 20260507143044 | 61 | 11 | 3.0 | 6.0 | 0.00 | 0.02 | 0.00 | 54 | 1015.1 |
| 20260507143040 | 61 | 59 | 2.0 | 6.0 | 0.00 | 0.02 | 0.00 | 54 | 1013.1 |
| 20260507142814 | 62 | 360 | 3.0 | 6.0 | 0.00 | 0.02 | 0.00 | 53 | 1015.1 |
| 20260507142323 | 61 | 36 | 3.0 | 6.0 | 0.00 | 0.02 | 0.00 | 55 | 1015.2 |
| 20260507141811 | 61 | 360 | 1.0 | 3.0 | 0.00 | 0.02 | 0.00 | 56 | 1015.5 |
| 20260507141545 | 60 | 325 | 0.0 | 3.0 | 0.00 | 0.02 | 0.00 | 60 | 1013.4 |
| 20260507141522 | 60 | 318 | 1.0 | 3.0 | 0.00 | 0.02 | 0.00 | 61 | 1015.5 |
| 20260507141320 | 60 | 13 | 1.0 | 3.0 | 0.00 | 0.02 | 0.00 | 58 | 1015.6 |
| 20260507140848 | 60 | 12 | 1.0 | 3.0 | 0.00 | 0.02 | 0.00 | 62 | 1015.7 |
| 20260507140334 | 59 | 346 | 1.0 | 5.0 | 0.00 | 0.02 | 0.00 | 61 | 1015.8 |
| 20260507140041 | 59 | 33 | 1.0 | 5.0 | 0.00 | 0.04 | 0.00 | 61 | 1015.7 |
| 20260507140038 | 59 | 33 | 1.0 | 5.0 | 0.00 | 0.02 | 0.00 | 60 | 1013.6 |
| 20260507135816 | 60 | 18 | 1.0 | 5.0 | 0.00 | 0.04 | 0.00 | 62 | 1015.8 |
| 20260507135323 | 59 | 19 | 1.0 | 5.0 | 0.00 | 0.04 | 0.00 | 67 | 1015.8 |
| 20260507134830 | 58 | 109 | 2.0 | 5.0 | 0.00 | 0.04 | 0.00 | 66 | 1015.8 |
| 20260507134540 | 57 | 84 | 1.0 | 5.0 | 0.00 | 0.04 | 0.00 | 65 | 1013.6 |
| 20260507134513 | 57 | 44 | 1.0 | 5.0 | 0.00 | 0.04 | 0.00 | 65 | 1015.7 |
| 20260507134316 | 57 | 215 | 1.0 | 5.0 | 0.00 | 0.04 | 0.00 | 62 | 1015.9 |
| 20260507133819 | 57 | 54 | 4.0 | 5.0 | 0.00 | 0.04 | 0.00 | 62 | 1015.9 |
| 20260507133353 | 57 | 55 | 2.0 | 4.0 | 0.00 | 0.04 | 0.00 | 64 | 1015.9 |
| 20260507133040 | 56 | 51 | 1.0 | 3.0 | 0.00 | 0.04 | 0.00 | 66 | 1015.9 |
| 20260507133038 | 56 | 51 | 1.0 | 3.0 | 0.00 | 0.04 | 0.00 | 66 | 1013.8 |
| 20260507132814 | 56 | 46 | 1.0 | 3.0 | 0.00 | 0.04 | 0.00 | 67 | 1016.0 |
| 20260507132322 | 56 | 5 | 1.0 | 3.0 | 0.00 | 0.04 | 0.00 | 73 | 1016.0 |
| 20260507131828 | 55 | 111 | 2.0 | 3.0 | 0.00 | 0.04 | 0.00 | 80 | 1016.1 |
| 20260507131539 | 54 | 0 | 0.0 | 3.0 | 0.00 | 0.04 | 0.00 | 83 | 1013.9 |
| 20260507131508 | 54 | 73 | 0.0 | 3.0 | 0.00 | 0.04 | 0.00 | 83 | 1016.0 |
| 20260507131316 | 54 | 94 | 1.0 | 3.0 | 0.00 | 0.04 | 0.00 | 84 | 1016.2 |
| 20260507130824 | 54 | 54 | 1.0 | 2.0 | 0.00 | 0.04 | 0.00 | 87 | 1016.1 |
| 20260507130310 | 53 | 95 | 1.0 | 2.0 | 0.00 | 0.04 | 0.00 | 88 | 1016.0 |
| 20260507130048 | 52 | 61 | 0.0 | 2.0 | 0.00 | 0.04 | 0.00 | 89 | 1016.0 |
| 20260507130039 | 52 | 0 | 0.0 | 2.0 | 0.00 | 0.04 | 0.00 | 88 | 1013.9 |
| 20260507125818 | 53 | 65 | 1.0 | 2.0 | 0.00 | 0.07 | 0.00 | 89 | 1016.1 |
| 20260507125348 | 52 | 134 | 1.0 | 2.0 | 0.00 | 0.07 | 0.00 | 89 | 1016.2 |
| 20260507124838 | 51 | 175 | 0.0 | 1.0 | 0.00 | 0.07 | 0.00 | 89 | 1016.1 |
| 20260507124551 | 51 | 175 | 0.0 | 1.0 | 0.00 | 0.07 | 0.00 | 89 | 1016.1 |
| 20260507124538 | 51 | 0 | 0.0 | 1.0 | 0.00 | 0.07 | 0.00 | 89 | 1013.8 |
| 20260507124353 | 51 | 175 | 0.0 | 0.0 | 0.00 | 0.07 | 0.00 | 89 | 1016.1 |
| 20260507123815 | 51 | 175 | 0.0 | 1.0 | 0.00 | 0.07 | 0.00 | 89 | 1016.2 |
| 20260507123326 | 50 | 175 | 0.0 | 1.0 | 0.00 | 0.07 | 0.00 | 89 | 1016.2 |
| 20260507123041 | 49 | 0 | 0.0 | 1.0 | 0.00 | 0.07 | 0.00 | 89 | 1013.9 |
| 20260507123007 | 49 | 175 | 0.0 | 1.0 | 0.00 | 0.07 | 0.00 | 89 | 1016.1 |
| 20260507122814 | 50 | 175 | 0.0 | 1.0 | 0.00 | 0.07 | 0.00 | 89 | 1016.2 |
| 20260507122320 | 50 | 175 | 0.0 | 1.0 | 0.00 | 0.07 | 0.00 | 89 | 1016.2 |
| 20260507121826 | 50 | 178 | 0.0 | 1.0 | 0.00 | 0.07 | 0.00 | 89 | 1016.2 |
| 20260507121533 | 49 | 0 | 0.0 | 1.0 | 0.00 | 0.07 | 0.00 | 88 | 1013.9 |
| 20260507121309 | 49 | 232 | 0.0 | 1.0 | 0.00 | 0.07 | 0.00 | 89 | 1016.3 |
| 20260507120817 | 49 | 232 | 0.0 | 1.0 | 0.00 | 0.07 | 0.00 | 89 | 1016.4 |
| 20260507120326 | 49 | 232 | 0.0 | 1.0 | 0.00 | 0.07 | 0.00 | 89 | 1016.3 |
| 20260507120042 | 48 | 0 | 0.0 | 0.0 | 0.00 | 0.07 | 0.00 | 88 | 1014.0 |
| 20260507120012 | 48 | 232 | 0.0 | 0.0 | 0.00 | 0.12 | 0.00 | 89 | 1016.2 |
| 20260507115814 | 49 | 232 | 0.0 | 0.0 | 0.00 | 0.12 | 0.00 | 89 | 1016.3 |
| 20260507115325 | 48 | 233 | 0.0 | 0.0 | 0.00 | 0.12 | 0.00 | 89 | 1016.4 |
| 20260507114809 | 48 | 233 | 0.0 | 0.0 | 0.00 | 0.12 | 0.00 | 88 | 1016.3 |
| 20260507114555 | 48 | 233 | 0.0 | 0.0 | 0.00 | 0.12 | 0.00 | 88 | 1016.2 |
| 20260507114539 | 48 | 0 | 0.0 | 0.0 | 0.00 | 0.12 | 0.00 | 92 | 1014.1 |
| 20260507114317 | 48 | 233 | 0.0 | 0.0 | 0.00 | 0.12 | 0.00 | 88 | 1016.3 |
| 20260507113846 | 48 | 233 | 0.0 | 0.0 | 0.00 | 0.12 | 0.00 | 88 | 1016.2 |
| 20260507113314 | 48 | 233 | 0.0 | 0.0 | 0.00 | 0.12 | 0.00 | 88 | 1016.1 |
| 20260507113042 | 47 | 0 | 0.0 | 0.0 | 0.00 | 0.12 | 0.00 | 88 | 1013.8 |
| 20260507113017 | 47 | 234 | 0.0 | 0.0 | 0.00 | 0.12 | 0.00 | 88 | 1016.0 |
| 20260507112821 | 48 | 234 | 0.0 | 0.0 | 0.00 | 0.12 | 0.00 | 88 | 1015.9 |
| 20260507112329 | 48 | 234 | 0.0 | 0.0 | 0.00 | 0.12 | 0.00 | 88 | 1015.9 |
| 20260507111812 | 48 | 234 | 0.0 | 0.0 | 0.00 | 0.12 | 0.00 | 88 | 1015.8 |
| 20260507111552 | 47 | 234 | 0.0 | 0.0 | 0.00 | 0.12 | 0.00 | 88 | 1015.6 |
| 20260507111539 | 47 | 0 | 0.0 | 0.0 | 0.00 | 0.12 | 0.00 | 87 | 1013.6 |
| 20260507111320 | 48 | 234 | 0.0 | 0.0 | 0.00 | 0.12 | 0.00 | 88 | 1015.8 |
| 20260507110830 | 47 | 234 | 0.0 | 0.0 | 0.00 | 0.12 | 0.00 | 88 | 1015.8 |
| 20260507110318 | 47 | 234 | 0.0 | 0.0 | 0.00 | 0.12 | 0.00 | 88 | 1015.7 |
| 20260507110105 | 47 | 234 | 0.0 | 0.0 | 0.00 | 0.12 | 0.00 | 88 | 1015.5 |
| 20260507110038 | 47 | 0 | 0.0 | 0.0 | 0.00 | 0.12 | 0.00 | 88 | 1013.5 |
| 20260507105827 | 47 | 234 | 0.0 | 0.0 | 0.00 | 0.19 | 0.00 | 88 | 1015.7 |
| 20260507105314 | 47 | 234 | 0.0 | 0.0 | 0.00 | 0.19 | 0.00 | 88 | 1015.6 |
| 20260507104824 | 47 | 234 | 0.0 | 0.0 | 0.00 | 0.19 | 0.00 | 88 | 1015.5 |
| 20260507104536 | 47 | 234 | 0.0 | 0.0 | 0.00 | 0.19 | 0.00 | 88 | 1015.3 |
| 20260507104532 | 47 | 0 | 0.0 | 0.0 | 0.00 | 0.19 | 0.00 | 87 | 1013.3 |
| 20260507104333 | 47 | 234 | 0.0 | 0.0 | 0.00 | 0.19 | 0.00 | 88 | 1015.4 |
| 20260507103817 | 47 | 234 | 0.0 | 0.0 | 0.00 | 0.19 | 0.00 | 88 | 1015.3 |
| 20260507103326 | 47 | 234 | 0.0 | 0.0 | 0.00 | 0.19 | 0.00 | 88 | 1015.3 |
| 20260507103038 | 47 | 0 | 0.0 | 0.0 | 0.00 | 0.19 | 0.00 | 87 | 1013.2 |
| 20260507103013 | 47 | 234 | 0.0 | 0.0 | 0.00 | 0.19 | 0.00 | 88 | 1015.1 |
| 20260507102816 | 47 | 234 | 0.0 | 0.0 | 0.00 | 0.19 | 0.00 | 88 | 1015.2 |
| 20260507102325 | 47 | 234 | 0.0 | 0.0 | 0.00 | 0.19 | 0.00 | 88 | 1015.2 |
| 20260507101827 | 47 | 156 | 0.0 | 0.0 | 0.00 | 0.19 | 0.00 | 87 | 1015.1 |
| 20260507101616 | 47 | 225 | 0.0 | 0.0 | 0.00 | 0.19 | 0.00 | 87 | 1015.1 |
| 20260507101537 | 47 | 0 | 0.0 | 1.0 | 0.00 | 0.19 | 0.00 | 87 | 1013.0 |
| 20260507101317 | 47 | 225 | 0.0 | 1.0 | 0.00 | 0.19 | 0.00 | 87 | 1015.3 |
| 20260507100825 | 47 | 225 | 0.0 | 1.0 | 0.00 | 0.19 | 0.00 | 87 | 1015.4 |
| 20260507100310 | 47 | 241 | 0.0 | 0.0 | 0.00 | 0.19 | 0.00 | 87 | 1015.4 |
| 20260507100046 | 47 | 241 | 0.0 | 0.0 | 0.00 | 0.19 | 0.00 | 87 | 1015.3 |
| 20260507100042 | 47 | 0 | 0.0 | 0.0 | 0.00 | 0.19 | 0.00 | 87 | 1013.2 |
| 20260507095819 | 47 | 241 | 0.0 | 0.0 | 0.00 | 0.34 | 0.00 | 87 | 1015.5 |
| 20260507095329 | 47 | 241 | 0.0 | 0.0 | 0.00 | 0.34 | 0.00 | 87 | 1015.5 |
| 20260507094840 | 47 | 241 | 0.0 | 0.0 | 0.00 | 0.34 | 0.00 | 87 | 1015.5 |
| 20260507094537 | 46 | 0 | 0.0 | 0.0 | 0.00 | 0.34 | 0.00 | 86 | 1013.2 |
| 20260507094506 | 46 | 241 | 0.0 | 0.0 | 0.00 | 0.34 | 0.00 | 87 | 1015.3 |
| 20260507094348 | 47 | 241 | 0.0 | 0.0 | 0.00 | 0.34 | 0.00 | 87 | 1015.5 |
| 20260507093816 | 47 | 241 | 0.0 | 0.0 | 0.00 | 0.34 | 0.00 | 87 | 1015.3 |
| 20260507093326 | 47 | 241 | 0.0 | 0.0 | 0.00 | 0.34 | 0.00 | 87 | 1015.5 |
| 20260507093041 | 46 | 241 | 0.0 | 0.0 | 0.00 | 0.34 | 0.00 | 87 | 1015.3 |
| 20260507093036 | 46 | 0 | 0.0 | 0.0 | 0.00 | 0.34 | 0.00 | 86 | 1013.2 |
| 20260507092834 | 47 | 241 | 0.0 | 0.0 | 0.00 | 0.34 | 0.00 | 87 | 1015.5 |
| 20260507092316 | 47 | 241 | 0.0 | 0.0 | 0.00 | 0.34 | 0.00 | 87 | 1015.4 |
| 20260507091824 | 47 | 241 | 0.0 | 0.0 | 0.00 | 0.34 | 0.00 | 86 | 1015.1 |
| 20260507091532 | 47 | 0 | 0.0 | 2.0 | 0.00 | 0.34 | 0.00 | 86 | 1013.0 |
| 20260507091510 | 47 | 241 | 0.0 | 1.0 | 0.00 | 0.34 | 0.00 | 86 | 1014.9 |
| 20260507091317 | 47 | 241 | 0.0 | 2.0 | 0.00 | 0.34 | 0.00 | 86 | 1015.2 |
| 20260507090818 | 48 | 241 | 0.0 | 2.0 | 0.00 | 0.34 | 0.00 | 87 | 1015.1 |
| 20260507090326 | 48 | 241 | 1.0 | 2.0 | 0.00 | 0.34 | 0.00 | 87 | 1015.2 |
| 20260507090112 | 47 | 241 | 0.0 | 1.0 | 0.00 | 0.34 | 0.00 | 86 | 1014.9 |
| 20260507090040 | 47 | 241 | 0.0 | 1.0 | 0.00 | 0.34 | 0.00 | 86 | 1013.0 |
| 20260507085817 | 48 | 241 | 0.0 | 1.0 | 0.00 | 0.42 | 0.00 | 86 | 1015.1 |
| 20260507085346 | 48 | 241 | 0.0 | 1.0 | 0.00 | 0.42 | 0.00 | 86 | 1015.1 |
| 20260507084813 | 48 | 241 | 0.0 | 2.0 | 0.00 | 0.42 | 0.00 | 86 | 1015.1 |
| 20260507084537 | 48 | 0 | 0.0 | 2.0 | 0.00 | 0.42 | 0.00 | 86 | 1012.9 |
| 20260507084520 | 48 | 241 | 0.0 | 2.0 | 0.00 | 0.42 | 0.00 | 86 | 1014.9 |
| 20260507084341 | 48 | 241 | 0.0 | 2.0 | 0.00 | 0.42 | 0.00 | 86 | 1015.1 |
| 20260507083827 | 49 | 241 | 1.0 | 2.0 | 0.00 | 0.42 | 0.00 | 86 | 1015.1 |
| 20260507083335 | 49 | 241 | 0.0 | 0.0 | 0.00 | 0.42 | 0.00 | 87 | 1014.9 |
| 20260507083043 | 49 | 241 | 0.0 | 0.0 | 0.00 | 0.42 | 0.00 | 87 | 1014.7 |
| 20260507083040 | 49 | 0 | 0.0 | 0.0 | 0.00 | 0.42 | 0.00 | 86 | 1012.7 |